createdAt,value
2018-08-04T00:01:46.225Z,3.92
2018-08-04T00:04:15.350Z,4.18
2018-08-04T00:06:43.722Z,4.00
2018-08-04T00:09:12.178Z,3.92
2018-08-04T00:11:41.265Z,3.83
2018-08-04T00:14:09.708Z,3.85
2018-08-04T00:16:39.082Z,4.22
2018-08-04T00:19:07.411Z,4.45
2018-08-04T00:21:35.841Z,4.03
2018-08-04T00:24:04.347Z,4.35
2018-08-04T00:26:32.706Z,4.20
2018-08-04T00:29:01.058Z,4.25
2018-08-04T00:31:29.584Z,3.83
2018-08-04T00:33:57.942Z,3.72
2018-08-04T00:36:26.263Z,3.85
2018-08-04T00:38:54.631Z,3.70
2018-08-04T00:41:22.987Z,3.67
2018-08-04T00:43:51.547Z,3.45
2018-08-04T00:46:20.987Z,3.40
2018-08-04T00:48:49.291Z,3.55
2018-08-04T00:51:17.711Z,3.58
2018-08-04T00:53:46.151Z,3.08
2018-08-04T00:56:14.601Z,3.08
2018-08-04T00:58:42.935Z,3.37
2018-08-04T01:01:12.054Z,3.20
2018-08-04T01:03:40.561Z,3.08
2018-08-04T01:06:09.048Z,2.95
2018-08-04T01:08:37.363Z,3.35
2018-08-04T01:11:06.629Z,3.05
2018-08-04T01:13:35.066Z,2.90
2018-08-04T01:16:04.169Z,2.92
2018-08-04T01:18:33.257Z,3.00
2018-08-04T01:21:01.602Z,3.10
2018-08-04T01:23:30.010Z,3.10
2018-08-04T01:25:59.115Z,3.15
2018-08-04T01:28:27.483Z,2.83
2018-08-04T01:30:56.705Z,2.87
2018-08-04T01:33:25.077Z,3.05
2018-08-04T01:35:53.457Z,2.83
2018-08-04T01:38:21.873Z,2.50
2018-08-04T01:40:50.256Z,2.50
2018-08-04T01:43:18.577Z,3.00
2018-08-04T01:45:47.685Z,2.40
2018-08-04T01:48:16.015Z,2.85
2018-08-04T01:50:44.354Z,2.53
2018-08-04T01:53:12.688Z,2.83
2018-08-04T01:55:41.142Z,2.50
2018-08-04T01:58:09.596Z,2.87
2018-08-04T02:00:37.950Z,2.87
2018-08-04T02:03:07.074Z,2.60
2018-08-04T02:05:35.419Z,2.92
2018-08-04T02:08:03.760Z,2.78
2018-08-04T02:10:32.125Z,2.50
2018-08-04T02:13:00.514Z,2.62
2018-08-04T02:15:28.867Z,2.55
2018-08-04T02:17:57.245Z,2.70
2018-08-04T02:20:25.573Z,2.60
2018-08-04T02:22:53.933Z,2.87
2018-08-04T02:25:22.330Z,2.42
2018-08-04T02:27:50.667Z,2.80
2018-08-04T02:30:19.047Z,2.58
2018-08-04T02:32:47.415Z,2.65
2018-08-04T02:35:15.767Z,2.42
2018-08-04T02:37:44.889Z,2.65
2018-08-04T02:40:13.223Z,2.50
2018-08-04T02:42:41.647Z,2.75
2018-08-04T02:45:09.973Z,3.10
2018-08-04T02:47:38.311Z,3.00
2018-08-04T02:50:06.795Z,2.75
2018-08-04T02:52:35.140Z,2.60
2018-08-04T02:55:03.481Z,2.60
2018-08-04T02:57:31.817Z,2.80
2018-08-04T03:00:00.156Z,2.75
2018-08-04T03:02:28.481Z,2.85
2018-08-04T03:04:57.551Z,2.78
2018-08-04T03:07:26.661Z,2.55
2018-08-04T03:09:54.993Z,2.70
2018-08-04T03:12:23.357Z,2.75
2018-08-04T03:14:51.750Z,2.65
2018-08-04T03:17:20.071Z,2.67
2018-08-04T03:19:49.177Z,2.70
2018-08-04T03:22:17.509Z,2.80
2018-08-04T03:24:45.949Z,2.72
2018-08-04T03:27:14.284Z,2.42
2018-08-04T03:29:42.719Z,2.83
2018-08-04T03:32:11.619Z,2.67
2018-08-04T03:34:39.977Z,3.00
2018-08-04T03:37:08.345Z,2.65
2018-08-04T03:39:36.671Z,2.72
2018-08-04T03:42:05.133Z,2.60
2018-08-04T03:44:33.487Z,2.70
2018-08-04T03:47:01.867Z,2.90
2018-08-04T03:49:30.513Z,2.72
2018-08-04T03:51:58.827Z,2.92
2018-08-04T03:54:27.175Z,2.60
2018-08-04T03:56:56.301Z,2.60
2018-08-04T03:59:26.091Z,2.80
2018-08-04T04:01:55.191Z,2.83
2018-08-04T04:04:24.309Z,2.92
2018-08-04T04:06:52.649Z,3.22
2018-08-04T04:09:21.005Z,3.17
2018-08-04T04:11:49.475Z,3.10
2018-08-04T04:14:17.979Z,2.60
2018-08-04T04:16:46.365Z,2.67
2018-08-04T04:19:14.815Z,2.80
2018-08-04T04:21:43.163Z,2.97
2018-08-04T04:24:11.565Z,2.70
2018-08-04T04:26:39.947Z,2.80
2018-08-04T04:29:08.536Z,3.33
2018-08-04T04:31:36.905Z,2.72
2018-08-04T04:34:05.284Z,2.97
2018-08-04T04:36:33.714Z,2.55
2018-08-04T04:39:02.112Z,3.20
2018-08-04T04:41:30.597Z,3.00
2018-08-04T04:43:59.713Z,2.65
2018-08-04T04:46:28.099Z,2.60
2018-08-04T04:48:56.446Z,2.80
2018-08-04T04:51:25.627Z,3.90
2018-08-04T04:53:53.973Z,3.00
2018-08-04T04:56:22.328Z,3.55
2018-08-04T04:58:50.777Z,3.12
2018-08-04T05:01:19.894Z,3.17
2018-08-04T05:03:48.250Z,3.35
2018-08-04T05:06:17.388Z,2.87
2018-08-04T05:08:45.786Z,3.12
2018-08-04T05:11:14.856Z,3.42
2018-08-04T05:13:43.994Z,3.55
2018-08-04T05:16:12.336Z,3.20
2018-08-04T05:18:40.678Z,3.20
2018-08-04T05:21:09.008Z,3.37
2018-08-04T05:23:37.340Z,3.47
2018-08-04T05:26:05.784Z,3.80
2018-08-04T05:28:34.158Z,3.50
2018-08-04T05:31:02.519Z,3.70
2018-08-04T05:33:30.917Z,3.72
2018-08-04T05:35:59.338Z,3.40
2018-08-04T05:38:27.870Z,3.70
2018-08-04T05:40:56.262Z,3.78
2018-08-04T05:43:24.708Z,4.15
2018-08-04T05:45:53.095Z,3.45
2018-08-04T05:48:21.459Z,3.85
2018-08-04T05:50:49.964Z,5.20
2018-08-04T05:53:18.340Z,5.75
2018-08-04T05:55:46.674Z,4.70
2018-08-04T05:58:15.942Z,4.40
2018-08-04T06:00:44.279Z,4.50
2018-08-04T06:03:12.674Z,4.60
2018-08-04T06:05:41.006Z,5.00
2018-08-04T06:08:10.151Z,4.55
2018-08-04T06:10:38.506Z,4.95
2018-08-04T06:13:07.600Z,5.18
2018-08-04T06:15:36.698Z,5.55
2018-08-04T06:18:05.027Z,5.05
2018-08-04T06:20:33.483Z,5.03
2018-08-04T06:23:01.859Z,4.30
2018-08-04T06:25:30.214Z,5.45
2018-08-04T06:27:58.576Z,5.47
2018-08-04T06:30:27.116Z,5.87
2018-08-04T06:32:55.483Z,5.70
2018-08-04T06:35:23.848Z,5.37
2018-08-04T06:37:52.186Z,5.35
2018-08-04T06:40:20.524Z,5.20
2018-08-04T06:42:49.340Z,5.57
2018-08-04T06:45:17.678Z,5.85
2018-08-04T06:47:46.349Z,5.60
2018-08-04T06:50:15.430Z,6.55
2018-08-04T06:52:43.806Z,6.40
2018-08-04T06:55:12.204Z,6.37
2018-08-04T06:57:41.064Z,5.62
2018-08-04T07:00:09.456Z,6.70
2018-08-04T07:02:38.564Z,11.00
2018-08-04T07:05:06.948Z,10.55
2018-08-04T07:07:35.364Z,8.63
2018-08-04T07:10:03.698Z,6.82
2018-08-04T07:12:32.912Z,6.60
2018-08-04T07:15:01.381Z,6.55
2018-08-04T07:17:30.729Z,6.25
2018-08-04T07:19:59.052Z,6.82
2018-08-04T07:22:28.176Z,6.90
2018-08-04T07:24:56.551Z,6.53
2018-08-04T07:27:24.930Z,6.15
2018-08-04T07:29:53.263Z,6.40
2018-08-04T07:32:21.636Z,7.07
2018-08-04T07:34:50.023Z,7.00
2018-08-04T07:37:18.698Z,6.22
2018-08-04T07:39:47.067Z,6.10
2018-08-04T07:42:15.417Z,6.40
2018-08-04T07:44:43.811Z,5.90
2018-08-04T07:47:12.199Z,5.55
2018-08-04T07:49:40.700Z,5.65
2018-08-04T07:52:09.022Z,6.28
2018-08-04T07:54:38.385Z,5.22
2018-08-04T07:57:07.654Z,5.20
2018-08-04T07:59:36.051Z,6.40
2018-08-04T08:02:04.371Z,5.30
2018-08-04T08:04:33.468Z,5.50
2018-08-04T08:07:02.580Z,5.40
2018-08-04T08:09:30.996Z,6.07
2018-08-04T08:11:59.330Z,5.55
2018-08-04T08:14:27.854Z,4.68
2018-08-04T08:16:56.341Z,5.10
2018-08-04T08:19:24.704Z,6.82
2018-08-04T08:21:53.155Z,9.57
2018-08-04T08:24:21.518Z,5.50
2018-08-04T08:26:49.901Z,5.43
2018-08-04T08:29:18.242Z,4.55
2018-08-04T08:31:46.629Z,4.93
2018-08-04T08:34:15.176Z,4.95
2018-08-04T08:36:43.633Z,4.20
2018-08-04T08:39:11.988Z,4.87
2018-08-04T08:41:40.779Z,5.18
2018-08-04T08:44:09.138Z,5.62
2018-08-04T08:46:37.478Z,4.70
2018-08-04T08:49:05.840Z,5.00
2018-08-04T08:51:34.935Z,4.35
2018-08-04T08:54:04.173Z,4.10
2018-08-04T08:56:32.433Z,4.07
2018-08-04T08:59:00.891Z,3.80
2018-08-04T09:01:30.024Z,4.60
2018-08-04T09:03:58.338Z,4.22
2018-08-04T09:06:27.465Z,3.60
2018-08-04T09:08:55.887Z,7.87
2018-08-04T09:11:24.263Z,6.65
2018-08-04T09:13:53.492Z,3.90
2018-08-04T09:16:26.916Z,3.55
2018-08-04T09:18:56.030Z,3.33
2018-08-04T09:21:24.508Z,3.25
2018-08-04T09:23:52.846Z,3.40
2018-08-04T09:26:21.211Z,3.30
2018-08-04T09:28:49.601Z,3.50
2018-08-04T09:31:17.961Z,3.00
2018-08-04T09:33:46.321Z,3.00
2018-08-04T09:36:14.677Z,2.97
2018-08-04T09:38:45.278Z,2.75
2018-08-04T09:41:13.715Z,2.58
2018-08-04T09:43:42.101Z,2.70
2018-08-04T09:46:10.456Z,2.90
2018-08-04T09:48:38.834Z,3.15
2018-08-04T09:51:07.200Z,3.33
2018-08-04T09:53:35.514Z,2.72
2018-08-04T09:56:03.883Z,5.18
2018-08-04T09:58:32.236Z,2.90
2018-08-04T10:01:01.369Z,2.85
2018-08-04T10:03:29.698Z,3.10
2018-08-04T10:05:58.973Z,3.40
2018-08-04T10:08:27.338Z,3.03
2018-08-04T10:10:55.691Z,2.55
2018-08-04T10:13:24.080Z,3.00
2018-08-04T10:15:52.486Z,2.65
2018-08-04T10:18:20.823Z,3.08
2018-08-04T10:20:49.281Z,2.70
2018-08-04T10:23:18.695Z,3.17
2018-08-04T10:25:47.817Z,3.20
2018-08-04T10:28:16.313Z,2.97
2018-08-04T10:30:45.235Z,2.95
2018-08-04T10:33:13.593Z,2.85
2018-08-04T10:35:41.972Z,2.85
2018-08-04T10:38:10.909Z,2.53
2018-08-04T10:40:40.005Z,2.75
2018-08-04T10:43:09.349Z,2.95
2018-08-04T10:45:37.665Z,2.83
2018-08-04T10:48:06.225Z,3.35
2018-08-04T10:50:34.609Z,3.17
2018-08-04T10:53:02.949Z,2.60
2018-08-04T10:55:31.437Z,2.37
2018-08-04T10:58:00.058Z,3.17
2018-08-04T11:00:29.315Z,2.60
2018-08-04T11:02:57.921Z,2.62
2018-08-04T11:05:26.341Z,2.87
2018-08-04T11:07:54.673Z,2.42
2018-08-04T11:10:23.469Z,2.90
2018-08-04T11:12:51.925Z,2.60
2018-08-04T11:15:20.337Z,2.85
2018-08-04T11:17:49.406Z,2.92
2018-08-04T11:20:17.967Z,2.67
2018-08-04T11:22:47.255Z,2.47
2018-08-04T11:25:15.701Z,2.60
2018-08-04T11:27:44.088Z,2.90
2018-08-04T11:30:12.435Z,2.22
2018-08-04T11:32:40.770Z,2.70
2018-08-04T11:35:09.216Z,2.92
2018-08-04T11:37:37.529Z,2.33
2018-08-04T11:40:05.873Z,2.45
2018-08-04T11:42:34.231Z,2.92
2018-08-04T11:45:02.587Z,2.58
2018-08-04T11:47:30.989Z,2.53
2018-08-04T11:49:59.339Z,2.17
2018-08-04T11:52:28.461Z,2.62
2018-08-04T11:54:56.798Z,2.30
2018-08-04T11:57:25.211Z,2.37
2018-08-04T11:59:53.564Z,2.37
2018-08-04T12:02:21.987Z,2.50
2018-08-04T12:04:50.381Z,2.37
2018-08-04T12:07:18.775Z,2.17
2018-08-04T12:09:47.178Z,2.10
2018-08-04T12:12:15.523Z,2.30
2018-08-04T12:14:43.900Z,2.30
2018-08-04T12:17:12.790Z,2.12
2018-08-04T12:19:41.109Z,2.10
2018-08-04T12:22:10.327Z,2.30
2018-08-04T12:24:38.651Z,1.80
2018-08-04T12:27:07.733Z,2.00
2018-08-04T12:29:36.122Z,2.20
2018-08-04T12:32:04.496Z,2.12
2018-08-04T12:34:32.852Z,2.20
2018-08-04T12:37:01.437Z,2.28
2018-08-04T12:39:29.823Z,2.30
2018-08-04T12:41:58.188Z,6.25
2018-08-04T12:44:26.567Z,3.53
2018-08-04T12:46:55.041Z,1.80
2018-08-04T12:49:23.397Z,1.85
2018-08-04T12:51:52.659Z,1.77
2018-08-04T12:54:21.296Z,1.83
2018-08-04T12:56:49.720Z,2.05
2018-08-04T12:59:18.131Z,2.03
2018-08-04T13:01:46.702Z,1.87
2018-08-04T13:04:15.058Z,1.90
2018-08-04T13:06:43.443Z,1.87
2018-08-04T13:09:11.864Z,2.03
2018-08-04T13:11:40.213Z,1.90
2018-08-04T13:14:08.534Z,1.90
2018-08-04T13:16:37.783Z,1.75
2018-08-04T13:19:06.324Z,1.83
2018-08-04T13:21:35.412Z,2.10
2018-08-04T13:24:05.460Z,2.35
2018-08-04T13:26:33.832Z,2.15
2018-08-04T13:29:02.177Z,2.22
2018-08-04T13:31:32.459Z,2.30
2018-08-04T13:34:01.430Z,1.90
2018-08-04T13:36:29.803Z,1.85
2018-08-04T13:38:58.139Z,1.67
2018-08-04T13:41:26.568Z,1.92
2018-08-04T13:43:54.879Z,1.80
2018-08-04T13:46:23.941Z,1.60
2018-08-04T13:48:52.893Z,1.92
2018-08-04T13:51:21.249Z,1.87
2018-08-04T13:53:49.615Z,2.10
2018-08-04T13:56:17.944Z,2.00
2018-08-04T13:58:46.292Z,1.95
2018-08-04T14:01:14.725Z,2.20
2018-08-04T14:03:43.715Z,2.20
2018-08-04T14:06:12.095Z,1.70
2018-08-04T14:08:40.443Z,1.73
2018-08-04T14:11:08.787Z,2.00
2018-08-04T14:13:37.147Z,1.77
2018-08-04T14:16:05.511Z,1.67
2018-08-04T14:18:34.643Z,2.00
2018-08-04T14:21:03.004Z,1.92
2018-08-04T14:23:31.405Z,1.70
2018-08-04T14:25:59.833Z,2.00
2018-08-04T14:28:29.029Z,1.80
2018-08-04T14:30:58.142Z,1.65
2018-08-04T14:33:26.551Z,1.60
2018-08-04T14:35:54.983Z,1.70
2018-08-04T14:38:23.417Z,1.67
2018-08-04T14:40:51.753Z,1.77
2018-08-04T14:43:20.100Z,1.45
2018-08-04T14:45:48.535Z,1.73
2018-08-04T14:48:16.873Z,1.45
2018-08-04T14:50:45.392Z,1.50
2018-08-04T14:53:13.898Z,1.48
2018-08-04T14:55:42.260Z,1.30
2018-08-04T14:58:11.645Z,1.70
2018-08-04T15:00:39.990Z,1.05
2018-08-04T15:03:08.350Z,1.33
2018-08-04T15:05:36.694Z,1.33
2018-08-04T15:08:05.050Z,1.50
2018-08-04T15:10:33.562Z,1.23
2018-08-04T15:13:02.734Z,1.37
2018-08-04T15:15:31.066Z,1.30
2018-08-04T15:17:59.434Z,1.50
2018-08-04T15:20:27.767Z,1.50
2018-08-04T15:22:56.898Z,1.40
2018-08-04T15:25:25.354Z,1.40
2018-08-04T15:27:54.444Z,1.50
2018-08-04T15:30:22.848Z,1.70
2018-08-04T15:32:52.109Z,1.75
2018-08-04T15:35:21.233Z,1.95
2018-08-04T15:37:49.682Z,7.82
2018-08-04T15:40:18.796Z,1.60
2018-08-04T15:42:47.996Z,1.60
2018-08-04T15:45:17.095Z,1.87
2018-08-04T15:47:45.465Z,1.50
2018-08-04T15:50:13.857Z,2.58
2018-08-04T15:52:42.227Z,1.80
2018-08-04T15:55:11.332Z,1.62
2018-08-04T15:57:40.635Z,1.60
2018-08-04T16:00:08.996Z,1.70
2018-08-04T16:02:38.108Z,1.75
2018-08-04T16:05:06.473Z,1.77
2018-08-04T16:07:34.867Z,1.83
2018-08-04T16:10:03.324Z,1.77
2018-08-04T16:12:31.721Z,2.05
2018-08-04T16:15:01.101Z,1.92
2018-08-04T16:17:29.436Z,1.62
2018-08-04T16:19:57.782Z,1.48
2018-08-04T16:22:26.112Z,1.75
2018-08-04T16:24:54.566Z,1.70
2018-08-04T16:27:23.659Z,1.40
2018-08-04T16:29:52.641Z,1.67
2018-08-04T16:32:20.985Z,1.55
2018-08-04T16:34:50.137Z,1.73
2018-08-04T16:37:18.457Z,1.45
2018-08-04T16:39:47.611Z,1.37
2018-08-04T16:42:15.949Z,1.30
2018-08-04T16:44:45.075Z,1.40
2018-08-04T16:47:13.445Z,1.50
2018-08-04T16:49:41.900Z,3.40
2018-08-04T16:52:10.385Z,2.22
2018-08-04T16:54:38.833Z,1.60
2018-08-04T16:57:07.300Z,1.37
2018-08-04T16:59:35.671Z,1.35
2018-08-04T17:02:04.364Z,1.80
2018-08-04T17:04:32.773Z,1.60
2018-08-04T17:07:01.201Z,1.30
2018-08-04T17:09:29.579Z,1.27
2018-08-04T17:11:57.966Z,1.83
2018-08-04T17:14:27.278Z,1.40
2018-08-04T17:16:55.712Z,5.57
2018-08-04T17:19:24.818Z,2.00
2018-08-04T17:21:53.939Z,1.58
2018-08-04T17:24:23.008Z,1.52
2018-08-04T17:26:52.378Z,1.50
2018-08-04T17:29:20.742Z,1.60
2018-08-04T17:31:49.101Z,10.13
2018-08-04T17:34:17.810Z,2.30
2018-08-04T17:36:46.158Z,2.12
2018-08-04T17:39:14.524Z,2.15
2018-08-04T17:41:42.989Z,1.70
2018-08-04T17:44:12.082Z,1.60
2018-08-04T17:46:41.202Z,1.60
2018-08-04T17:49:09.545Z,2.42
2018-08-04T17:51:38.135Z,2.35
2018-08-04T17:54:06.479Z,2.03
2018-08-04T17:56:34.822Z,1.75
2018-08-04T17:59:04.090Z,1.60
2018-08-04T18:01:32.517Z,1.70
2018-08-04T18:04:01.696Z,1.75
2018-08-04T18:06:30.757Z,2.08
2018-08-04T18:08:59.126Z,3.30
2018-08-04T18:11:27.466Z,2.50
2018-08-04T18:13:55.818Z,2.08
2018-08-04T18:16:24.914Z,2.00
2018-08-04T18:18:54.083Z,1.92
2018-08-04T18:21:22.364Z,2.12
2018-08-04T18:23:50.796Z,3.05
2018-08-04T18:26:19.188Z,2.20
2018-08-04T18:28:47.536Z,2.08
2018-08-04T18:31:15.887Z,1.80
2018-08-04T18:33:44.256Z,1.90
2018-08-04T18:36:12.586Z,1.95
2018-08-04T18:38:40.968Z,2.00
2018-08-04T18:41:09.299Z,2.00
2018-08-04T18:43:37.768Z,1.85
2018-08-04T18:46:06.155Z,2.90
2018-08-04T18:48:34.483Z,1.87
2018-08-04T18:51:02.986Z,1.92
2018-08-04T18:53:31.310Z,1.85
2018-08-04T18:56:00.472Z,1.70
2018-08-04T18:58:28.796Z,2.35
2018-08-04T19:00:58.083Z,5.55
2018-08-04T19:03:26.382Z,2.87
2018-08-04T19:05:55.484Z,2.30
2018-08-04T19:08:23.835Z,2.22
2018-08-04T19:10:52.939Z,2.53
2018-08-04T19:13:21.342Z,3.87
2018-08-04T19:15:50.843Z,3.78
2018-08-04T19:18:19.742Z,2.50
2018-08-04T19:20:48.078Z,2.25
2018-08-04T19:23:16.448Z,2.30
2018-08-04T19:25:44.775Z,2.17
2018-08-04T19:28:13.328Z,2.00
2018-08-04T19:30:41.606Z,2.22
2018-08-04T19:33:10.722Z,2.05
2018-08-04T19:35:39.229Z,2.08
2018-08-04T19:38:07.590Z,2.30
2018-08-04T19:40:35.978Z,4.15
2018-08-04T19:43:04.320Z,3.03
2018-08-04T19:45:32.786Z,2.70
2018-08-04T19:48:01.183Z,2.30
2018-08-04T19:50:29.693Z,2.17
2018-08-04T19:52:58.014Z,2.30
2018-08-04T19:55:26.374Z,2.50
2018-08-04T19:57:54.731Z,2.03
2018-08-04T20:00:23.118Z,2.25
2018-08-04T20:02:51.501Z,2.45
2018-08-04T20:05:19.871Z,3.62
2018-08-04T20:07:48.276Z,2.75
2018-08-04T20:10:16.935Z,2.08
2018-08-04T20:12:45.441Z,2.30
2018-08-04T20:15:13.787Z,2.65
2018-08-04T20:17:42.144Z,2.50
2018-08-04T20:20:10.619Z,2.42
2018-08-04T20:22:38.968Z,2.12
2018-08-04T20:25:07.323Z,2.33
2018-08-04T20:27:35.717Z,7.50
2018-08-04T20:30:04.866Z,2.05
2018-08-04T20:32:34.201Z,2.10
2018-08-04T20:35:02.726Z,2.35
2018-08-04T20:37:31.017Z,1.90
2018-08-04T20:39:59.442Z,2.70
2018-08-04T20:42:27.776Z,2.60
2018-08-04T20:44:56.115Z,3.08
2018-08-04T20:47:24.524Z,2.35
2018-08-04T20:49:52.972Z,3.05
2018-08-04T20:52:21.359Z,2.95
2018-08-04T20:54:49.704Z,2.28
2018-08-04T20:57:18.041Z,1.75
2018-08-04T20:59:46.547Z,1.90
2018-08-04T21:02:15.641Z,1.60
2018-08-04T21:04:44.985Z,1.62
2018-08-04T21:07:13.364Z,3.03
2018-08-04T21:09:41.733Z,2.67
2018-08-04T21:12:10.079Z,1.75
2018-08-04T21:14:39.206Z,1.83
2018-08-04T21:17:07.634Z,1.90
2018-08-04T21:19:35.948Z,2.05
2018-08-04T21:22:04.568Z,2.50
2018-08-04T21:24:32.868Z,1.95
2018-08-04T21:27:01.244Z,1.85
2018-08-04T21:29:29.588Z,1.95
2018-08-04T21:31:58.430Z,1.60
2018-08-04T21:34:26.782Z,8.57
2018-08-04T21:36:55.236Z,3.15
2018-08-04T21:39:23.591Z,1.90
2018-08-04T21:41:52.706Z,1.77
2018-08-04T21:44:21.104Z,1.80
2018-08-04T21:46:49.455Z,2.62
2018-08-04T21:49:17.931Z,2.03
2018-08-04T21:51:47.016Z,1.70
2018-08-04T21:54:19.917Z,1.70
2018-08-04T21:56:44.510Z,1.80
2018-08-04T21:59:12.860Z,1.60
2018-08-04T22:01:42.213Z,1.55
2018-08-04T22:04:10.742Z,1.50
2018-08-04T22:06:39.157Z,1.73
2018-08-04T22:09:18.882Z,2.33
2018-08-04T22:11:48.243Z,1.67
2018-08-04T22:14:16.566Z,1.80
2018-08-04T22:16:45.694Z,1.70
2018-08-04T22:19:14.064Z,1.52
2018-08-04T22:21:43.149Z,1.40
2018-08-04T22:24:11.488Z,1.83
2018-08-04T22:26:40.050Z,1.50
2018-08-04T22:29:08.366Z,3.50
2018-08-04T22:31:37.584Z,1.90
2018-08-04T22:34:05.923Z,1.60
2018-08-04T22:36:34.284Z,1.60
2018-08-04T22:39:02.633Z,1.30
2018-08-04T22:41:31.011Z,1.65
2018-08-04T22:43:59.362Z,1.50
2018-08-04T22:46:28.456Z,1.40
2018-08-04T22:48:57.717Z,4.07
2018-08-04T22:51:26.077Z,2.22
2018-08-04T22:53:54.436Z,1.70
2018-08-04T22:56:22.774Z,1.75
2018-08-04T22:58:51.126Z,1.73
2018-08-04T23:01:19.504Z,1.60
2018-08-04T23:03:47.892Z,1.45
2018-08-04T23:06:16.335Z,1.73
2018-08-04T23:08:44.672Z,1.60
2018-08-04T23:11:13.038Z,1.58
2018-08-04T23:13:41.371Z,1.42
2018-08-04T23:16:09.803Z,1.62
2018-08-04T23:18:38.120Z,1.60
2018-08-04T23:21:06.458Z,1.55
2018-08-04T23:23:34.814Z,1.70
2018-08-04T23:26:03.146Z,1.40
2018-08-04T23:28:32.279Z,2.37
2018-08-04T23:31:00.731Z,1.83
2018-08-04T23:33:29.238Z,1.80
2018-08-04T23:35:57.605Z,1.37
2018-08-04T23:38:25.940Z,1.65
2018-08-04T23:40:54.267Z,1.92
2018-08-04T23:43:22.911Z,2.20
2018-08-04T23:45:51.224Z,2.20
2018-08-04T23:48:19.555Z,1.73
2018-08-04T23:50:47.908Z,1.75
2018-08-04T23:53:16.248Z,1.60
2018-08-04T23:55:44.667Z,1.87
2018-08-04T23:58:13.014Z,1.70
